Pagrindinis puslapis
METAR-TAF:

METAR-TAF

Oro uostai :

Førde, Norvegija

platuma: 61-27N, ilguma: 005-52E, Aukštis: 150 m

Dabartinis oras

Ataskaita buvo paskelbta 13 valandos ir 11 minutes, ne 09:50 UTC
Vėjas 13 kt iš Pietų
Temperatūra 6°C
Drėgmė 70%
Slėgis 1019 hPa
Matomumas 10 km arba daugiau
Mažai debesys ne aukštis 2000 ft
Su prošvaistėmis ne aukštis 6000 ft

METAR: ENBL 050950Z 17013KT 9999 FEW020 BKN060 06/01 Q1019

Laikas: 01:01 (23:01 UTC)


TAF: trūkstamas

Orai ataskaitas ir orų prognozės (METAR, TAF).

turimą stotys yra geltonos ir raudonos taškus žemėlapyje.

Perkelti pele per norėdami pamatyti stoties vardą.

Tada spustelėkite, norėdami matyti oro stebėjimo ir prognozės.

Norėdami pakeisti žemėlapį: spustelėkite ant žalios mygtukų su juodo kryžiaus žemyn,; žalią mygtuką su brūkšneliu, jei norite nutolinti; arba žalių rodyklių gretimoms žemėlapius.


METAR-TAF: